Terminal Aerodrome Forecast
Issued by NWS

Home | Current Version | Previous Version | Text Only | Print | Product List | Glossary On
Versions: 1 2 3 4 5 6 7 8 9 10 11 12 13 14
000
FTUS45 KRIW 172300
TAFBPI
TAF
KBPI 172322Z 1800/1824 VRB05KT P6SM SCT040
     FM180600 VRB03KT P6SM VCFG SCT020
     FM181000 VRB04KT 3SM BR BKN020
     FM181400 VRB04KT P6SM SCT030=

USA.gov is the U.S. government's official web portal to all federal, state and local government web resources and services.